sensor_id;sensor_type;location;lat;lon;timestamp;temperature;humidity
25214;DHT22;13160;51.834;4.706;2023-03-01T00:01:47;1.10;99.90
25214;DHT22;13160;51.834;4.706;2023-03-01T00:04:17;1.10;99.90
25214;DHT22;13160;51.834;4.706;2023-03-01T00:06:47;1.10;99.90
25214;DHT22;13160;51.834;4.706;2023-03-01T00:09:18;1.00;99.90
25214;DHT22;13160;51.834;4.706;2023-03-01T00:11:46;1.00;99.90
25214;DHT22;13160;51.834;4.706;2023-03-01T00:14:14;1.00;99.90
25214;DHT22;13160;51.834;4.706;2023-03-01T00:16:45;1.00;99.90
25214;DHT22;13160;51.834;4.706;2023-03-01T00:19:16;1.00;99.90
25214;DHT22;13160;51.834;4.706;2023-03-01T00:21:47;1.00;99.90
25214;DHT22;13160;51.834;4.706;2023-03-01T00:24:18;1.00;99.90
25214;DHT22;13160;51.834;4.706;2023-03-01T00:26:46;1.00;99.90
25214;DHT22;13160;51.834;4.706;2023-03-01T00:29:17;1.00;99.90
25214;DHT22;13160;51.834;4.706;2023-03-01T00:31:45;0.90;99.90
25214;DHT22;13160;51.834;4.706;2023-03-01T00:34:13;1.00;99.90
25214;DHT22;13160;51.834;4.706;2023-03-01T00:36:44;0.90;99.90
25214;DHT22;13160;51.834;4.706;2023-03-01T00:39:17;0.90;99.90
25214;DHT22;13160;51.834;4.706;2023-03-01T00:41:45;0.90;99.90
25214;DHT22;13160;51.834;4.706;2023-03-01T00:44:13;0.80;99.90
25214;DHT22;13160;51.834;4.706;2023-03-01T00:46:42;0.80;99.90
25214;DHT22;13160;51.834;4.706;2023-03-01T00:49:10;0.80;99.90
25214;DHT22;13160;51.834;4.706;2023-03-01T00:51:38;0.80;99.90
25214;DHT22;13160;51.834;4.706;2023-03-01T00:54:09;0.70;99.90
25214;DHT22;13160;51.834;4.706;2023-03-01T00:56:38;0.70;99.90
25214;DHT22;13160;51.834;4.706;2023-03-01T00:59:06;0.70;99.90
25214;DHT22;13160;51.834;4.706;2023-03-01T01:01:34;0.60;99.90
25214;DHT22;13160;51.834;4.706;2023-03-01T01:04:06;0.60;99.90
25214;DHT22;13160;51.834;4.706;2023-03-01T01:06:39;0.60;99.90
25214;DHT22;13160;51.834;4.706;2023-03-01T01:09:12;0.60;99.90
25214;DHT22;13160;51.834;4.706;2023-03-01T01:11:44;0.60;99.90
25214;DHT22;13160;51.834;4.706;2023-03-01T01:14:13;0.60;99.90
25214;DHT22;13160;51.834;4.706;2023-03-01T01:16:42;0.60;99.90
25214;DHT22;13160;51.834;4.706;2023-03-01T01:19:11;0.60;99.90
25214;DHT22;13160;51.834;4.706;2023-03-01T01:21:41;0.50;99.90
25214;DHT22;13160;51.834;4.706;2023-03-01T01:24:13;0.50;99.90
25214;DHT22;13160;51.834;4.706;2023-03-01T01:26:42;0.50;99.90
25214;DHT22;13160;51.834;4.706;2023-03-01T01:29:11;0.50;99.90
25214;DHT22;13160;51.834;4.706;2023-03-01T01:31:41;0.50;99.90
25214;DHT22;13160;51.834;4.706;2023-03-01T01:34:14;0.50;99.90
25214;DHT22;13160;51.834;4.706;2023-03-01T01:36:48;0.50;99.90
25214;DHT22;13160;51.834;4.706;2023-03-01T01:39:18;0.50;99.90
25214;DHT22;13160;51.834;4.706;2023-03-01T01:41:46;0.50;99.90
25214;DHT22;13160;51.834;4.706;2023-03-01T01:44:18;0.50;99.90
25214;DHT22;13160;51.834;4.706;2023-03-01T01:46:50;0.50;99.90
25214;DHT22;13160;51.834;4.706;2023-03-01T01:49:29;0.50;99.90
25214;DHT22;13160;51.834;4.706;2023-03-01T01:52:09;0.50;99.90
25214;DHT22;13160;51.834;4.706;2023-03-01T01:54:44;0.40;99.90
25214;DHT22;13160;51.834;4.706;2023-03-01T01:57:19;0.40;99.90
25214;DHT22;13160;51.834;4.706;2023-03-01T01:59:52;0.50;99.90
25214;DHT22;13160;51.834;4.706;2023-03-01T02:02:22;0.40;99.90
25214;DHT22;13160;51.834;4.706;2023-03-01T02:04:55;0.40;99.90
25214;DHT22;13160;51.834;4.706;2023-03-01T02:07:30;0.40;99.90
25214;DHT22;13160;51.834;4.706;2023-03-01T02:10:00;0.40;99.90
25214;DHT22;13160;51.834;4.706;2023-03-01T02:12:30;0.40;99.90
25214;DHT22;13160;51.834;4.706;2023-03-01T02:14:59;0.40;99.90
25214;DHT22;13160;51.834;4.706;2023-03-01T02:17:27;0.40;99.90
25214;DHT22;13160;51.834;4.706;2023-03-01T02:20:06;0.40;99.90
25214;DHT22;13160;51.834;4.706;2023-03-01T02:22:39;0.40;99.90
25214;DHT22;13160;51.834;4.706;2023-03-01T02:25:21;0.40;99.90
25214;DHT22;13160;51.834;4.706;2023-03-01T02:27:58;0.40;99.90
25214;DHT22;13160;51.834;4.706;2023-03-01T02:30:32;0.40;99.90
25214;DHT22;13160;51.834;4.706;2023-03-01T02:33:03;0.40;99.90
25214;DHT22;13160;51.834;4.706;2023-03-01T02:35:33;0.40;99.90
25214;DHT22;13160;51.834;4.706;2023-03-01T02:38:08;0.40;99.90
25214;DHT22;13160;51.834;4.706;2023-03-01T02:40:38;0.40;99.90
25214;DHT22;13160;51.834;4.706;2023-03-01T02:43:09;0.40;99.90
25214;DHT22;13160;51.834;4.706;2023-03-01T02:45:47;0.40;99.90
25214;DHT22;13160;51.834;4.706;2023-03-01T02:48:17;0.40;99.90
25214;DHT22;13160;51.834;4.706;2023-03-01T02:50:58;0.40;99.90
25214;DHT22;13160;51.834;4.706;2023-03-01T02:53:38;0.40;99.90
25214;DHT22;13160;51.834;4.706;2023-03-01T02:56:08;0.30;99.90
25214;DHT22;13160;51.834;4.706;2023-03-01T02:58:40;0.40;99.90
25214;DHT22;13160;51.834;4.706;2023-03-01T03:01:16;0.30;99.90
25214;DHT22;13160;51.834;4.706;2023-03-01T03:03:45;0.30;99.90
25214;DHT22;13160;51.834;4.706;2023-03-01T03:06:14;0.30;99.90
25214;DHT22;13160;51.834;4.706;2023-03-01T03:08:43;0.30;99.90
25214;DHT22;13160;51.834;4.706;2023-03-01T03:11:11;0.30;99.90
25214;DHT22;13160;51.834;4.706;2023-03-01T03:13:40;0.30;99.90
25214;DHT22;13160;51.834;4.706;2023-03-01T03:16:16;0.20;99.90
25214;DHT22;13160;51.834;4.706;2023-03-01T03:18:44;0.20;99.90
25214;DHT22;13160;51.834;4.706;2023-03-01T03:21:13;0.30;99.90
25214;DHT22;13160;51.834;4.706;2023-03-01T03:23:43;0.20;99.90
25214;DHT22;13160;51.834;4.706;2023-03-01T03:26:11;0.20;99.90
25214;DHT22;13160;51.834;4.706;2023-03-01T03:28:44;0.20;99.90
25214;DHT22;13160;51.834;4.706;2023-03-01T03:31:13;0.10;99.90
25214;DHT22;13160;51.834;4.706;2023-03-01T03:33:46;0.10;99.90
25214;DHT22;13160;51.834;4.706;2023-03-01T03:36:19;0.10;99.90
25214;DHT22;13160;51.834;4.706;2023-03-01T03:38:49;0.10;99.90
25214;DHT22;13160;51.834;4.706;2023-03-01T03:41:18;0.00;99.90
25214;DHT22;13160;51.834;4.706;2023-03-01T03:43:46;0.00;99.90
25214;DHT22;13160;51.834;4.706;2023-03-01T03:46:18;-0.10;99.90
25214;DHT22;13160;51.834;4.706;2023-03-01T03:48:48;-0.10;99.90
25214;DHT22;13160;51.834;4.706;2023-03-01T03:51:18;0.00;99.90
25214;DHT22;13160;51.834;4.706;2023-03-01T03:53:49;-0.10;99.90
25214;DHT22;13160;51.834;4.706;2023-03-01T03:56:18;-0.10;99.90
25214;DHT22;13160;51.834;4.706;2023-03-01T03:58:46;-0.10;99.90
25214;DHT22;13160;51.834;4.706;2023-03-01T04:01:18;-0.10;99.90
25214;DHT22;13160;51.834;4.706;2023-03-01T04:03:48;-0.20;99.90
25214;DHT22;13160;51.834;4.706;2023-03-01T04:06:21;-0.20;99.90
25214;DHT22;13160;51.834;4.706;2023-03-01T04:08:49;-0.20;99.90
25214;DHT22;13160;51.834;4.706;2023-03-01T04:11:26;-0.30;99.90
25214;DHT22;13160;51.834;4.706;2023-03-01T04:13:57;-0.20;99.90
25214;DHT22;13160;51.834;4.706;2023-03-01T04:16:26;-0.30;99.90
25214;DHT22;13160;51.834;4.706;2023-03-01T04:18:57;-0.30;99.90
25214;DHT22;13160;51.834;4.706;2023-03-01T04:21:26;-0.30;99.90
25214;DHT22;13160;51.834;4.706;2023-03-01T04:23:54;-0.30;99.90
25214;DHT22;13160;51.834;4.706;2023-03-01T04:26:23;-0.30;99.90
25214;DHT22;13160;51.834;4.706;2023-03-01T04:28:51;-0.30;99.90
25214;DHT22;13160;51.834;4.706;2023-03-01T04:31:21;-0.30;99.90
25214;DHT22;13160;51.834;4.706;2023-03-01T04:33:51;-0.30;99.90
25214;DHT22;13160;51.834;4.706;2023-03-01T04:36:23;-0.30;99.90
25214;DHT22;13160;51.834;4.706;2023-03-01T04:38:53;-0.30;99.90
25214;DHT22;13160;51.834;4.706;2023-03-01T04:41:23;-0.30;99.90
25214;DHT22;13160;51.834;4.706;2023-03-01T04:43:52;-0.30;99.90
25214;DHT22;13160;51.834;4.706;2023-03-01T04:46:21;-0.30;99.90
25214;DHT22;13160;51.834;4.706;2023-03-01T04:48:50;-0.40;99.90
25214;DHT22;13160;51.834;4.706;2023-03-01T04:51:18;-0.40;99.90
25214;DHT22;13160;51.834;4.706;2023-03-01T04:53:48;-0.40;99.90
25214;DHT22;13160;51.834;4.706;2023-03-01T04:56:16;-0.40;99.90
25214;DHT22;13160;51.834;4.706;2023-03-01T04:58:46;-0.50;99.90
25214;DHT22;13160;51.834;4.706;2023-03-01T05:01:16;-0.50;99.90
25214;DHT22;13160;51.834;4.706;2023-03-01T05:03:48;-0.50;99.90
25214;DHT22;13160;51.834;4.706;2023-03-01T05:06:18;-0.50;99.90
25214;DHT22;13160;51.834;4.706;2023-03-01T05:08:48;-0.60;99.90
25214;DHT22;13160;51.834;4.706;2023-03-01T05:11:19;-0.60;99.90
25214;DHT22;13160;51.834;4.706;2023-03-01T05:13:48;-0.50;99.90
25214;DHT22;13160;51.834;4.706;2023-03-01T05:16:21;-0.60;99.90
25214;DHT22;13160;51.834;4.706;2023-03-01T05:18:50;-0.60;99.90
25214;DHT22;13160;51.834;4.706;2023-03-01T05:21:18;-0.60;99.90
25214;DHT22;13160;51.834;4.706;2023-03-01T05:23:48;-0.60;99.90
25214;DHT22;13160;51.834;4.706;2023-03-01T05:26:19;-0.60;99.90
25214;DHT22;13160;51.834;4.706;2023-03-01T05:29:05;-0.60;99.90
25214;DHT22;13160;51.834;4.706;2023-03-01T05:31:36;-0.60;99.90
25214;DHT22;13160;51.834;4.706;2023-03-01T05:34:05;-0.60;99.90
25214;DHT22;13160;51.834;4.706;2023-03-01T05:36:34;-0.70;99.90
25214;DHT22;13160;51.834;4.706;2023-03-01T05:39:04;-0.70;99.90
25214;DHT22;13160;51.834;4.706;2023-03-01T05:41:32;-0.70;99.90
25214;DHT22;13160;51.834;4.706;2023-03-01T05:44:01;-0.70;99.90
25214;DHT22;13160;51.834;4.706;2023-03-01T05:46:31;-0.70;99.90
25214;DHT22;13160;51.834;4.706;2023-03-01T05:49:00;-0.70;99.90
25214;DHT22;13160;51.834;4.706;2023-03-01T05:51:31;-0.80;99.90
25214;DHT22;13160;51.834;4.706;2023-03-01T05:54:00;-0.80;99.90
25214;DHT22;13160;51.834;4.706;2023-03-01T05:56:32;-0.80;99.90
25214;DHT22;13160;51.834;4.706;2023-03-01T05:59:02;-0.80;99.90
25214;DHT22;13160;51.834;4.706;2023-03-01T06:01:32;-0.80;99.90
25214;DHT22;13160;51.834;4.706;2023-03-01T06:04:01;-0.80;99.90
25214;DHT22;13160;51.834;4.706;2023-03-01T06:06:33;-0.80;99.90
25214;DHT22;13160;51.834;4.706;2023-03-01T06:09:02;-0.80;99.90
25214;DHT22;13160;51.834;4.706;2023-03-01T06:11:33;-0.80;99.90
25214;DHT22;13160;51.834;4.706;2023-03-01T06:14:02;-0.80;99.90
25214;DHT22;13160;51.834;4.706;2023-03-01T06:16:30;-0.80;99.90
25214;DHT22;13160;51.834;4.706;2023-03-01T06:19:02;-0.80;99.90
25214;DHT22;13160;51.834;4.706;2023-03-01T06:21:30;-0.80;99.90
25214;DHT22;13160;51.834;4.706;2023-03-01T06:23:59;-0.80;99.90
25214;DHT22;13160;51.834;4.706;2023-03-01T06:26:27;-0.80;99.90
25214;DHT22;13160;51.834;4.706;2023-03-01T06:28:57;-0.80;99.90
25214;DHT22;13160;51.834;4.706;2023-03-01T06:31:26;-0.80;99.90
25214;DHT22;13160;51.834;4.706;2023-03-01T06:33:54;-0.80;99.90
25214;DHT22;13160;51.834;4.706;2023-03-01T06:36:22;-0.70;99.90
25214;DHT22;13160;51.834;4.706;2023-03-01T06:38:51;-0.80;99.90
25214;DHT22;13160;51.834;4.706;2023-03-01T06:41:19;-0.80;99.90
25214;DHT22;13160;51.834;4.706;2023-03-01T06:43:47;-0.80;99.90
25214;DHT22;13160;51.834;4.706;2023-03-01T06:46:17;-0.80;99.90
25214;DHT22;13160;51.834;4.706;2023-03-01T06:48:46;-0.80;99.90
25214;DHT22;13160;51.834;4.706;2023-03-01T06:51:14;-0.80;99.90
25214;DHT22;13160;51.834;4.706;2023-03-01T06:53:46;-0.80;99.90
25214;DHT22;13160;51.834;4.706;2023-03-01T06:56:14;-0.80;99.90
25214;DHT22;13160;51.834;4.706;2023-03-01T06:58:43;-0.80;99.90
25214;DHT22;13160;51.834;4.706;2023-03-01T07:01:11;-0.80;99.90
25214;DHT22;13160;51.834;4.706;2023-03-01T07:03:41;-0.90;99.90
25214;DHT22;13160;51.834;4.706;2023-03-01T07:06:12;-0.80;99.90
25214;DHT22;13160;51.834;4.706;2023-03-01T07:08:41;-0.80;99.90
25214;DHT22;13160;51.834;4.706;2023-03-01T07:11:09;-0.80;99.90
25214;DHT22;13160;51.834;4.706;2023-03-01T07:13:37;-0.80;99.90
25214;DHT22;13160;51.834;4.706;2023-03-01T07:16:07;-0.80;99.90
25214;DHT22;13160;51.834;4.706;2023-03-01T07:18:35;-0.80;99.90
25214;DHT22;13160;51.834;4.706;2023-03-01T07:21:06;-0.80;99.90
25214;DHT22;13160;51.834;4.706;2023-03-01T07:23:35;-0.70;99.90
25214;DHT22;13160;51.834;4.706;2023-03-01T07:26:04;-0.70;99.90
25214;DHT22;13160;51.834;4.706;2023-03-01T07:28:32;-0.70;99.90
25214;DHT22;13160;51.834;4.706;2023-03-01T07:31:04;-0.70;99.90
25214;DHT22;13160;51.834;4.706;2023-03-01T07:33:33;-0.60;99.90
25214;DHT22;13160;51.834;4.706;2023-03-01T07:36:03;-0.60;99.90
25214;DHT22;13160;51.834;4.706;2023-03-01T07:38:34;-0.60;99.90
25214;DHT22;13160;51.834;4.706;2023-03-01T07:41:03;-0.50;99.90
25214;DHT22;13160;51.834;4.706;2023-03-01T07:43:32;-0.50;99.90
25214;DHT22;13160;51.834;4.706;2023-03-01T07:46:02;-0.50;99.90
25214;DHT22;13160;51.834;4.706;2023-03-01T07:48:31;-0.40;99.90
25214;DHT22;13160;51.834;4.706;2023-03-01T07:51:01;-0.40;99.90
25214;DHT22;13160;51.834;4.706;2023-03-01T07:53:32;-0.30;99.90
25214;DHT22;13160;51.834;4.706;2023-03-01T07:56:04;-0.30;99.90
25214;DHT22;13160;51.834;4.706;2023-03-01T07:58:34;-0.30;99.90
25214;DHT22;13160;51.834;4.706;2023-03-01T08:01:03;-0.20;99.90
25214;DHT22;13160;51.834;4.706;2023-03-01T08:03:33;-0.20;99.90
25214;DHT22;13160;51.834;4.706;2023-03-01T08:06:03;-0.10;99.90
25214;DHT22;13160;51.834;4.706;2023-03-01T08:08:35;-0.10;99.90
25214;DHT22;13160;51.834;4.706;2023-03-01T08:11:07;0.00;99.90
25214;DHT22;13160;51.834;4.706;2023-03-01T08:13:37;0.00;99.90
25214;DHT22;13160;51.834;4.706;2023-03-01T08:16:07;0.10;99.90
25214;DHT22;13160;51.834;4.706;2023-03-01T08:18:37;0.10;99.90
25214;DHT22;13160;51.834;4.706;2023-03-01T08:21:07;0.20;99.90
25214;DHT22;13160;51.834;4.706;2023-03-01T08:23:39;0.20;99.90
25214;DHT22;13160;51.834;4.706;2023-03-01T08:26:10;0.30;99.90
25214;DHT22;13160;51.834;4.706;2023-03-01T08:28:40;0.40;99.90
25214;DHT22;13160;51.834;4.706;2023-03-01T08:31:20;0.50;99.90
25214;DHT22;13160;51.834;4.706;2023-03-01T08:33:52;0.60;99.90
25214;DHT22;13160;51.834;4.706;2023-03-01T08:36:23;0.60;99.90
25214;DHT22;13160;51.834;4.706;2023-03-01T08:38:53;0.70;99.90
25214;DHT22;13160;51.834;4.706;2023-03-01T08:41:22;0.80;99.90
25214;DHT22;13160;51.834;4.706;2023-03-01T08:43:51;0.90;99.90
25214;DHT22;13160;51.834;4.706;2023-03-01T08:46:26;1.00;99.90
25214;DHT22;13160;51.834;4.706;2023-03-01T08:48:55;1.10;99.90
25214;DHT22;13160;51.834;4.706;2023-03-01T08:51:24;1.20;99.90
25214;DHT22;13160;51.834;4.706;2023-03-01T08:53:54;1.30;99.90
25214;DHT22;13160;51.834;4.706;2023-03-01T08:56:23;1.40;99.90
25214;DHT22;13160;51.834;4.706;2023-03-01T08:58:51;1.50;99.90
25214;DHT22;13160;51.834;4.706;2023-03-01T09:01:19;1.60;99.90
25214;DHT22;13160;51.834;4.706;2023-03-01T09:03:47;1.70;99.90
25214;DHT22;13160;51.834;4.706;2023-03-01T09:06:16;1.80;99.90
25214;DHT22;13160;51.834;4.706;2023-03-01T09:08:46;1.80;99.90
25214;DHT22;13160;51.834;4.706;2023-03-01T09:11:21;2.00;99.90
25214;DHT22;13160;51.834;4.706;2023-03-01T09:13:50;2.10;99.90
25214;DHT22;13160;51.834;4.706;2023-03-01T09:16:20;2.20;99.90
25214;DHT22;13160;51.834;4.706;2023-03-01T09:18:51;2.30;99.90
25214;DHT22;13160;51.834;4.706;2023-03-01T09:21:22;2.40;99.90
25214;DHT22;13160;51.834;4.706;2023-03-01T09:24:06;2.50;99.90
25214;DHT22;13160;51.834;4.706;2023-03-01T09:26:36;2.60;99.90
25214;DHT22;13160;51.834;4.706;2023-03-01T09:29:05;2.70;99.90
25214;DHT22;13160;51.834;4.706;2023-03-01T09:31:33;2.80;99.90
25214;DHT22;13160;51.834;4.706;2023-03-01T09:34:01;2.90;99.90
25214;DHT22;13160;51.834;4.706;2023-03-01T09:36:33;3.00;99.90
25214;DHT22;13160;51.834;4.706;2023-03-01T09:39:02;3.10;99.90
25214;DHT22;13160;51.834;4.706;2023-03-01T09:41:44;3.20;99.90
25214;DHT22;13160;51.834;4.706;2023-03-01T09:44:34;3.30;99.90
25214;DHT22;13160;51.834;4.706;2023-03-01T09:47:08;3.40;99.90
25214;DHT22;13160;51.834;4.706;2023-03-01T09:49:41;3.50;99.90
25214;DHT22;13160;51.834;4.706;2023-03-01T09:52:23;3.60;99.90
25214;DHT22;13160;51.834;4.706;2023-03-01T09:54:55;3.70;99.90
25214;DHT22;13160;51.834;4.706;2023-03-01T09:57:33;3.80;99.90
25214;DHT22;13160;51.834;4.706;2023-03-01T10:00:24;3.80;99.90
25214;DHT22;13160;51.834;4.706;2023-03-01T10:03:02;3.90;99.90
25214;DHT22;13160;51.834;4.706;2023-03-01T10:05:44;4.00;99.90
25214;DHT22;13160;51.834;4.706;2023-03-01T10:08:31;4.10;99.90
25214;DHT22;13160;51.834;4.706;2023-03-01T10:11:05;4.20;99.90
25214;DHT22;13160;51.834;4.706;2023-03-01T10:13:54;4.30;99.90
25214;DHT22;13160;51.834;4.706;2023-03-01T10:16:32;4.40;99.90
25214;DHT22;13160;51.834;4.706;2023-03-01T10:19:11;4.50;99.90
25214;DHT22;13160;51.834;4.706;2023-03-01T10:21:45;4.60;99.90
25214;DHT22;13160;51.834;4.706;2023-03-01T10:24:17;4.60;99.90
25214;DHT22;13160;51.834;4.706;2023-03-01T10:26:55;4.70;99.90
25214;DHT22;13160;51.834;4.706;2023-03-01T10:29:31;4.80;99.90
25214;DHT22;13160;51.834;4.706;2023-03-01T10:32:04;4.90;99.90
25214;DHT22;13160;51.834;4.706;2023-03-01T10:34:35;5.00;99.90
25214;DHT22;13160;51.834;4.706;2023-03-01T10:37:11;5.10;99.90
25214;DHT22;13160;51.834;4.706;2023-03-01T10:39:58;5.20;99.90
25214;DHT22;13160;51.834;4.706;2023-03-01T10:42:34;5.30;99.90
25214;DHT22;13160;51.834;4.706;2023-03-01T10:45:33;5.30;99.90
25214;DHT22;13160;51.834;4.706;2023-03-01T10:48:05;5.40;99.90
25214;DHT22;13160;51.834;4.706;2023-03-01T10:50:40;5.50;99.90
25214;DHT22;13160;51.834;4.706;2023-03-01T10:53:24;5.50;99.90
25214;DHT22;13160;51.834;4.706;2023-03-01T10:56:01;5.60;99.90
25214;DHT22;13160;51.834;4.706;2023-03-01T10:58:32;5.70;99.90
25214;DHT22;13160;51.834;4.706;2023-03-01T11:01:06;5.70;99.90
25214;DHT22;13160;51.834;4.706;2023-03-01T11:04:11;5.90;99.90
25214;DHT22;13160;51.834;4.706;2023-03-01T11:06:41;6.00;99.90
25214;DHT22;13160;51.834;4.706;2023-03-01T11:09:20;6.00;99.90
25214;DHT22;13160;51.834;4.706;2023-03-01T11:11:52;6.00;99.90
25214;DHT22;13160;51.834;4.706;2023-03-01T11:14:23;6.10;99.90
25214;DHT22;13160;51.834;4.706;2023-03-01T11:17:15;6.20;99.90
25214;DHT22;13160;51.834;4.706;2023-03-01T11:20:00;6.20;99.90
25214;DHT22;13160;51.834;4.706;2023-03-01T11:22:31;6.20;99.90
25214;DHT22;13160;51.834;4.706;2023-03-01T11:25:01;6.30;99.90
25214;DHT22;13160;51.834;4.706;2023-03-01T11:27:40;6.30;99.90
25214;DHT22;13160;51.834;4.706;2023-03-01T11:30:18;6.40;99.90
25214;DHT22;13160;51.834;4.706;2023-03-01T11:32:56;6.40;99.90
25214;DHT22;13160;51.834;4.706;2023-03-01T11:35:47;6.50;99.90
25214;DHT22;13160;51.834;4.706;2023-03-01T11:38:22;6.50;99.90
25214;DHT22;13160;51.834;4.706;2023-03-01T11:40:55;6.60;99.80
25214;DHT22;13160;51.834;4.706;2023-03-01T11:43:35;6.70;99.90
25214;DHT22;13160;51.834;4.706;2023-03-01T11:46:32;6.70;98.80
25214;DHT22;13160;51.834;4.706;2023-03-01T11:49:32;6.80;97.90
25214;DHT22;13160;51.834;4.706;2023-03-01T11:52:23;6.80;97.90
25214;DHT22;13160;51.834;4.706;2023-03-01T11:55:17;6.90;97.90
25214;DHT22;13160;51.834;4.706;2023-03-01T11:58:12;6.90;97.80
25214;DHT22;13160;51.834;4.706;2023-03-01T12:07:25;7.10;96.30
25214;DHT22;13160;51.834;4.706;2023-03-01T12:10:25;7.20;96.50
25214;DHT22;13160;51.834;4.706;2023-03-01T12:13:11;7.20;95.80
25214;DHT22;13160;51.834;4.706;2023-03-01T12:16:14;7.20;95.40
25214;DHT22;13160;51.834;4.706;2023-03-01T12:19:25;7.30;94.50
25214;DHT22;13160;51.834;4.706;2023-03-01T12:22:29;7.30;94.60
25214;DHT22;13160;51.834;4.706;2023-03-01T12:25:16;7.30;94.80
25214;DHT22;13160;51.834;4.706;2023-03-01T12:31:37;7.50;93.90
25214;DHT22;13160;51.834;4.706;2023-03-01T12:34:24;7.50;93.60
25214;DHT22;13160;51.834;4.706;2023-03-01T12:37:31;7.50;93.30
25214;DHT22;13160;51.834;4.706;2023-03-01T12:40:20;7.50;92.40
25214;DHT22;13160;51.834;4.706;2023-03-01T12:43:07;7.60;91.20
25214;DHT22;13160;51.834;4.706;2023-03-01T12:46:09;7.60;92.20
25214;DHT22;13160;51.834;4.706;2023-03-01T12:48:49;7.60;91.50
25214;DHT22;13160;51.834;4.706;2023-03-01T12:51:24;7.70;92.10
25214;DHT22;13160;51.834;4.706;2023-03-01T12:53:58;7.70;92.20
25214;DHT22;13160;51.834;4.706;2023-03-01T12:56:29;7.80;91.30
25214;DHT22;13160;51.834;4.706;2023-03-01T12:59:07;7.80;91.10
25214;DHT22;13160;51.834;4.706;2023-03-01T13:01:49;7.80;91.00
25214;DHT22;13160;51.834;4.706;2023-03-01T13:04:32;7.90;90.80
25214;DHT22;13160;51.834;4.706;2023-03-01T13:07:18;7.90;90.30
25214;DHT22;13160;51.834;4.706;2023-03-01T13:10:02;7.90;90.20
25214;DHT22;13160;51.834;4.706;2023-03-01T13:12:45;7.90;90.20
25214;DHT22;13160;51.834;4.706;2023-03-01T13:15:26;8.00;90.10
25214;DHT22;13160;51.834;4.706;2023-03-01T13:17:57;8.00;89.80
25214;DHT22;13160;51.834;4.706;2023-03-01T13:20:30;8.00;89.80
25214;DHT22;13160;51.834;4.706;2023-03-01T13:23:03;8.00;89.10
25214;DHT22;13160;51.834;4.706;2023-03-01T13:26:12;8.00;87.90
25214;DHT22;13160;51.834;4.706;2023-03-01T13:28:50;8.10;88.10
25214;DHT22;13160;51.834;4.706;2023-03-01T13:34:41;8.10;85.70
25214;DHT22;13160;51.834;4.706;2023-03-01T13:37:29;8.10;85.40
25214;DHT22;13160;51.834;4.706;2023-03-01T13:40:03;8.10;85.70
25214;DHT22;13160;51.834;4.706;2023-03-01T13:42:38;8.20;85.80
25214;DHT22;13160;51.834;4.706;2023-03-01T13:45:19;8.20;85.60
25214;DHT22;13160;51.834;4.706;2023-03-01T13:47:53;8.30;85.10
25214;DHT22;13160;51.834;4.706;2023-03-01T13:50:29;8.30;84.50
25214;DHT22;13160;51.834;4.706;2023-03-01T13:53:06;8.30;83.70
25214;DHT22;13160;51.834;4.706;2023-03-01T13:55:40;8.30;83.70
25214;DHT22;13160;51.834;4.706;2023-03-01T13:58:21;8.30;82.80
25214;DHT22;13160;51.834;4.706;2023-03-01T14:00:56;8.30;81.60
25214;DHT22;13160;51.834;4.706;2023-03-01T14:03:27;8.30;82.20
25214;DHT22;13160;51.834;4.706;2023-03-01T14:06:05;8.30;81.90
25214;DHT22;13160;51.834;4.706;2023-03-01T14:08:43;8.30;81.20
25214;DHT22;13160;51.834;4.706;2023-03-01T14:15:00;8.30;79.40
25214;DHT22;13160;51.834;4.706;2023-03-01T14:17:49;8.20;80.40
25214;DHT22;13160;51.834;4.706;2023-03-01T14:20:25;8.20;80.10
25214;DHT22;13160;51.834;4.706;2023-03-01T14:22:58;8.20;80.80
25214;DHT22;13160;51.834;4.706;2023-03-01T14:25:29;8.30;81.80
25214;DHT22;13160;51.834;4.706;2023-03-01T14:28:03;8.20;79.90
25214;DHT22;13160;51.834;4.706;2023-03-01T14:30:42;8.20;80.30
25214;DHT22;13160;51.834;4.706;2023-03-01T14:33:23;8.20;80.20
25214;DHT22;13160;51.834;4.706;2023-03-01T14:35:55;8.20;79.70
25214;DHT22;13160;51.834;4.706;2023-03-01T14:38:31;8.20;79.90
25214;DHT22;13160;51.834;4.706;2023-03-01T14:41:06;8.20;79.90
25214;DHT22;13160;51.834;4.706;2023-03-01T14:43:37;8.20;79.00
25214;DHT22;13160;51.834;4.706;2023-03-01T14:46:19;8.20;78.80
25214;DHT22;13160;51.834;4.706;2023-03-01T14:48:51;8.20;78.90
25214;DHT22;13160;51.834;4.706;2023-03-01T14:51:20;8.20;79.00
25214;DHT22;13160;51.834;4.706;2023-03-01T14:53:48;8.20;78.60
25214;DHT22;13160;51.834;4.706;2023-03-01T14:56:17;8.20;78.50
25214;DHT22;13160;51.834;4.706;2023-03-01T14:58:53;8.20;79.00
25214;DHT22;13160;51.834;4.706;2023-03-01T15:01:27;8.20;78.40
25214;DHT22;13160;51.834;4.706;2023-03-01T15:03:57;8.20;78.90
25214;DHT22;13160;51.834;4.706;2023-03-01T15:06:28;8.20;78.80
25214;DHT22;13160;51.834;4.706;2023-03-01T15:08:57;8.20;78.10
25214;DHT22;13160;51.834;4.706;2023-03-01T15:11:29;8.20;78.20
25214;DHT22;13160;51.834;4.706;2023-03-01T15:13:59;8.20;78.20
25214;DHT22;13160;51.834;4.706;2023-03-01T15:16:31;8.20;78.50
25214;DHT22;13160;51.834;4.706;2023-03-01T15:19:02;8.10;78.10
25214;DHT22;13160;51.834;4.706;2023-03-01T15:21:33;8.10;78.70
25214;DHT22;13160;51.834;4.706;2023-03-01T15:24:06;8.10;77.80
25214;DHT22;13160;51.834;4.706;2023-03-01T15:26:41;8.10;78.10
25214;DHT22;13160;51.834;4.706;2023-03-01T15:29:16;8.10;78.10
25214;DHT22;13160;51.834;4.706;2023-03-01T15:31:56;8.10;78.20
25214;DHT22;13160;51.834;4.706;2023-03-01T15:34:28;8.10;77.50
25214;DHT22;13160;51.834;4.706;2023-03-01T15:36:58;8.00;77.60
25214;DHT22;13160;51.834;4.706;2023-03-01T15:39:34;8.00;77.60
25214;DHT22;13160;51.834;4.706;2023-03-01T15:42:11;8.00;77.80
25214;DHT22;13160;51.834;4.706;2023-03-01T15:44:43;8.00;77.70
25214;DHT22;13160;51.834;4.706;2023-03-01T15:47:30;8.00;78.30
25214;DHT22;13160;51.834;4.706;2023-03-01T15:50:00;8.00;78.40
25214;DHT22;13160;51.834;4.706;2023-03-01T15:52:33;7.90;78.50
25214;DHT22;13160;51.834;4.706;2023-03-01T15:55:16;7.90;78.70
25214;DHT22;13160;51.834;4.706;2023-03-01T15:57:47;7.90;78.80
25214;DHT22;13160;51.834;4.706;2023-03-01T16:00:19;7.90;79.00
25214;DHT22;13160;51.834;4.706;2023-03-01T16:02:49;7.90;79.10
25214;DHT22;13160;51.834;4.706;2023-03-01T16:05:20;7.90;78.80
25214;DHT22;13160;51.834;4.706;2023-03-01T16:07:50;7.80;78.30
25214;DHT22;13160;51.834;4.706;2023-03-01T16:10:19;7.80;78.90
25214;DHT22;13160;51.834;4.706;2023-03-01T16:12:48;7.80;79.00
25214;DHT22;13160;51.834;4.706;2023-03-01T16:15:20;7.80;79.10
25214;DHT22;13160;51.834;4.706;2023-03-01T16:17:52;7.80;79.50
25214;DHT22;13160;51.834;4.706;2023-03-01T16:20:21;7.80;79.50
25214;DHT22;13160;51.834;4.706;2023-03-01T16:22:55;7.70;79.70
25214;DHT22;13160;51.834;4.706;2023-03-01T16:25:26;7.70;80.00
25214;DHT22;13160;51.834;4.706;2023-03-01T16:27:55;7.70;80.20
25214;DHT22;13160;51.834;4.706;2023-03-01T16:30:27;7.70;80.40
25214;DHT22;13160;51.834;4.706;2023-03-01T16:32:57;7.70;80.00
25214;DHT22;13160;51.834;4.706;2023-03-01T16:35:26;7.70;80.00
25214;DHT22;13160;51.834;4.706;2023-03-01T16:37:55;7.60;80.20
25214;DHT22;13160;51.834;4.706;2023-03-01T16:40:26;7.60;80.50